sensor_id;sensor_type;location;lat;lon;timestamp;P1;P2;P0
73631;PMS5003;61924;53.268;-2.458;2023-03-15T00:00:08;11;11;
73631;PMS5003;61924;53.268;-2.458;2023-03-15T00:02:32;15;13;
73631;PMS5003;61924;53.268;-2.458;2023-03-15T00:04:57;13;13;
73631;PMS5003;61924;53.268;-2.458;2023-03-15T00:07:23;19;18;
73631;PMS5003;61924;53.268;-2.458;2023-03-15T00:09:49;14;12;
73631;PMS5003;61924;53.268;-2.458;2023-03-15T00:12:14;17;15;
73631;PMS5003;61924;53.268;-2.458;2023-03-15T00:14:40;14;13;
73631;PMS5003;61924;53.268;-2.458;2023-03-15T00:17:05;16;14;
73631;PMS5003;61924;53.268;-2.458;2023-03-15T00:19:30;16;15;
73631;PMS5003;61924;53.268;-2.458;2023-03-15T00:21:56;14;13;
73631;PMS5003;61924;53.268;-2.458;2023-03-15T00:24:21;13;11;
73631;PMS5003;61924;53.268;-2.458;2023-03-15T00:26:46;19;17;
73631;PMS5003;61924;53.268;-2.458;2023-03-15T00:29:11;14;14;
73631;PMS5003;61924;53.268;-2.458;2023-03-15T00:31:36;13;10;
73631;PMS5003;61924;53.268;-2.458;2023-03-15T00:34:02;14;13;
73631;PMS5003;61924;53.268;-2.458;2023-03-15T00:36:28;11;10;
73631;PMS5003;61924;53.268;-2.458;2023-03-15T00:38:54;12;12;
73631;PMS5003;61924;53.268;-2.458;2023-03-15T00:41:19;15;13;
73631;PMS5003;61924;53.268;-2.458;2023-03-15T00:43:45;9;8;
73631;PMS5003;61924;53.268;-2.458;2023-03-15T00:46:10;11;11;
73631;PMS5003;61924;53.268;-2.458;2023-03-15T00:48:35;10;10;
73631;PMS5003;61924;53.268;-2.458;2023-03-15T00:51:02;11;10;
73631;PMS5003;61924;53.268;-2.458;2023-03-15T00:53:27;15;14;
73631;PMS5003;61924;53.268;-2.458;2023-03-15T00:55:52;10;9;
73631;PMS5003;61924;53.268;-2.458;2023-03-15T00:58:17;12;12;
73631;PMS5003;61924;53.268;-2.458;2023-03-15T01:00:43;15;13;
73631;PMS5003;61924;53.268;-2.458;2023-03-15T01:03:08;11;10;
73631;PMS5003;61924;53.268;-2.458;2023-03-15T01:05:35;10;9;
73631;PMS5003;61924;53.268;-2.458;2023-03-15T01:07:59;9;8;
73631;PMS5003;61924;53.268;-2.458;2023-03-15T01:10:25;9;9;
73631;PMS5003;61924;53.268;-2.458;2023-03-15T01:12:50;10;10;
73631;PMS5003;61924;53.268;-2.458;2023-03-15T01:15:15;11;10;
73631;PMS5003;61924;53.268;-2.458;2023-03-15T01:17:41;8;8;
73631;PMS5003;61924;53.268;-2.458;2023-03-15T01:20:06;12;10;
73631;PMS5003;61924;53.268;-2.458;2023-03-15T01:35:47;9;9;
73631;PMS5003;61924;53.268;-2.458;2023-03-15T01:38:12;10;8;
73631;PMS5003;61924;53.268;-2.458;2023-03-15T01:40:39;6;6;
73631;PMS5003;61924;53.268;-2.458;2023-03-15T01:43:11;8;7;
73631;PMS5003;61924;53.268;-2.458;2023-03-15T01:46:02;9;9;
73631;PMS5003;61924;53.268;-2.458;2023-03-15T01:47:54;9;9;
73631;PMS5003;61924;53.268;-2.458;2023-03-15T01:50:20;6;6;
73631;PMS5003;61924;53.268;-2.458;2023-03-15T01:52:45;7;7;
73631;PMS5003;61924;53.268;-2.458;2023-03-15T01:55:11;9;6;
73631;PMS5003;61924;53.268;-2.458;2023-03-15T01:57:37;10;9;
73631;PMS5003;61924;53.268;-2.458;2023-03-15T02:00:03;6;6;
73631;PMS5003;61924;53.268;-2.458;2023-03-15T02:02:27;9;9;
73631;PMS5003;61924;53.268;-2.458;2023-03-15T02:04:54;6;6;
73631;PMS5003;61924;53.268;-2.458;2023-03-15T02:07:18;9;9;
73631;PMS5003;61924;53.268;-2.458;2023-03-15T02:09:46;8;7;
73631;PMS5003;61924;53.268;-2.458;2023-03-15T02:12:09;8;8;
73631;PMS5003;61924;53.268;-2.458;2023-03-15T02:14:35;7;6;
73631;PMS5003;61924;53.268;-2.458;2023-03-15T02:17:00;4;4;
73631;PMS5003;61924;53.268;-2.458;2023-03-15T02:19:30;5;5;
73631;PMS5003;61924;53.268;-2.458;2023-03-15T02:21:53;4;4;
73631;PMS5003;61924;53.268;-2.458;2023-03-15T02:24:20;6;6;
73631;PMS5003;61924;53.268;-2.458;2023-03-15T02:26:43;6;5;
73631;PMS5003;61924;53.268;-2.458;2023-03-15T02:29:07;4;4;
73631;PMS5003;61924;53.268;-2.458;2023-03-15T02:31:33;4;4;
73631;PMS5003;61924;53.268;-2.458;2023-03-15T02:33:59;5;5;
73631;PMS5003;61924;53.268;-2.458;2023-03-15T02:36:25;4;4;
73631;PMS5003;61924;53.268;-2.458;2023-03-15T02:38:50;2;2;
73631;PMS5003;61924;53.268;-2.458;2023-03-15T02:41:16;4;4;
73631;PMS5003;61924;53.268;-2.458;2023-03-15T02:43:41;2;2;
73631;PMS5003;61924;53.268;-2.458;2023-03-15T02:46:07;3;3;
73631;PMS5003;61924;53.268;-2.458;2023-03-15T02:48:33;2;2;
73631;PMS5003;61924;53.268;-2.458;2023-03-15T02:50:57;4;3;
73631;PMS5003;61924;53.268;-2.458;2023-03-15T02:53:22;5;4;
73631;PMS5003;61924;53.268;-2.458;2023-03-15T02:55:48;3;3;
73631;PMS5003;61924;53.268;-2.458;2023-03-15T02:58:13;6;4;
73631;PMS5003;61924;53.268;-2.458;2023-03-15T03:00:38;4;4;
73631;PMS5003;61924;53.268;-2.458;2023-03-15T03:03:04;2;2;
73631;PMS5003;61924;53.268;-2.458;2023-03-15T03:05:30;3;3;
73631;PMS5003;61924;53.268;-2.458;2023-03-15T03:07:55;4;3;
73631;PMS5003;61924;53.268;-2.458;2023-03-15T03:10:21;2;2;
73631;PMS5003;61924;53.268;-2.458;2023-03-15T03:12:46;3;3;
73631;PMS5003;61924;53.268;-2.458;2023-03-15T03:15:12;3;3;
73631;PMS5003;61924;53.268;-2.458;2023-03-15T03:17:37;4;3;
73631;PMS5003;61924;53.268;-2.458;2023-03-15T03:20:02;1;1;
73631;PMS5003;61924;53.268;-2.458;2023-03-15T03:22:28;1;1;
73631;PMS5003;61924;53.268;-2.458;2023-03-15T03:24:53;3;3;
73631;PMS5003;61924;53.268;-2.458;2023-03-15T03:27:19;5;5;
73631;PMS5003;61924;53.268;-2.458;2023-03-15T03:29:44;2;2;
73631;PMS5003;61924;53.268;-2.458;2023-03-15T03:32:10;2;1;
73631;PMS5003;61924;53.268;-2.458;2023-03-15T03:34:35;2;2;
73631;PMS5003;61924;53.268;-2.458;2023-03-15T03:37:01;4;3;
73631;PMS5003;61924;53.268;-2.458;2023-03-15T03:39:26;2;2;
73631;PMS5003;61924;53.268;-2.458;2023-03-15T03:41:51;4;4;
73631;PMS5003;61924;53.268;-2.458;2023-03-15T03:44:17;2;2;
73631;PMS5003;61924;53.268;-2.458;2023-03-15T03:46:42;3;3;
73631;PMS5003;61924;53.268;-2.458;2023-03-15T03:49:07;3;3;
73631;PMS5003;61924;53.268;-2.458;2023-03-15T03:51:33;3;3;
73631;PMS5003;61924;53.268;-2.458;2023-03-15T03:53:59;4;4;
73631;PMS5003;61924;53.268;-2.458;2023-03-15T03:56:24;3;3;
73631;PMS5003;61924;53.268;-2.458;2023-03-15T03:58:49;3;3;
73631;PMS5003;61924;53.268;-2.458;2023-03-15T04:01:14;4;4;
73631;PMS5003;61924;53.268;-2.458;2023-03-15T04:03:40;2;2;
73631;PMS5003;61924;53.268;-2.458;2023-03-15T04:06:06;3;3;
73631;PMS5003;61924;53.268;-2.458;2023-03-15T04:08:31;5;5;
73631;PMS5003;61924;53.268;-2.458;2023-03-15T04:10:57;3;3;
73631;PMS5003;61924;53.268;-2.458;2023-03-15T04:13:22;6;5;
73631;PMS5003;61924;53.268;-2.458;2023-03-15T04:15:47;3;3;
73631;PMS5003;61924;53.268;-2.458;2023-03-15T04:18:13;3;3;
73631;PMS5003;61924;53.268;-2.458;2023-03-15T04:20:38;4;3;
73631;PMS5003;61924;53.268;-2.458;2023-03-15T04:23:04;3;3;
73631;PMS5003;61924;53.268;-2.458;2023-03-15T04:25:29;2;1;
73631;PMS5003;61924;53.268;-2.458;2023-03-15T04:27:55;4;3;
73631;PMS5003;61924;53.268;-2.458;2023-03-15T04:30:20;4;3;
73631;PMS5003;61924;53.268;-2.458;2023-03-15T04:32:46;5;4;
73631;PMS5003;61924;53.268;-2.458;2023-03-15T04:35:11;2;2;
73631;PMS5003;61924;53.268;-2.458;2023-03-15T04:37:36;5;4;
73631;PMS5003;61924;53.268;-2.458;2023-03-15T04:40:02;4;3;
73631;PMS5003;61924;53.268;-2.458;2023-03-15T04:42:27;6;6;
73631;PMS5003;61924;53.268;-2.458;2023-03-15T04:44:53;2;1;
73631;PMS5003;61924;53.268;-2.458;2023-03-15T04:47:19;5;5;
73631;PMS5003;61924;53.268;-2.458;2023-03-15T04:49:44;4;4;
73631;PMS5003;61924;53.268;-2.458;2023-03-15T04:52:09;5;5;
73631;PMS5003;61924;53.268;-2.458;2023-03-15T04:54:34;4;4;
73631;PMS5003;61924;53.268;-2.458;2023-03-15T04:57:00;4;3;
73631;PMS5003;61924;53.268;-2.458;2023-03-15T04:59:25;2;2;
73631;PMS5003;61924;53.268;-2.458;2023-03-15T05:01:51;6;5;
73631;PMS5003;61924;53.268;-2.458;2023-03-15T05:04:17;2;2;
73631;PMS5003;61924;53.268;-2.458;2023-03-15T05:06:42;6;4;
73631;PMS5003;61924;53.268;-2.458;2023-03-15T05:09:08;3;3;
73631;PMS5003;61924;53.268;-2.458;2023-03-15T05:11:34;3;3;
73631;PMS5003;61924;53.268;-2.458;2023-03-15T05:13:59;3;3;
73631;PMS5003;61924;53.268;-2.458;2023-03-15T05:16:24;4;4;
73631;PMS5003;61924;53.268;-2.458;2023-03-15T05:18:50;4;4;
73631;PMS5003;61924;53.268;-2.458;2023-03-15T05:21:15;7;5;
73631;PMS5003;61924;53.268;-2.458;2023-03-15T05:23:41;6;5;
73631;PMS5003;61924;53.268;-2.458;2023-03-15T05:26:06;20;19;
73631;PMS5003;61924;53.268;-2.458;2023-03-15T05:28:31;33;32;
73631;PMS5003;61924;53.268;-2.458;2023-03-15T05:30:57;28;28;
73631;PMS5003;61924;53.268;-2.458;2023-03-15T05:33:22;30;28;
73631;PMS5003;61924;53.268;-2.458;2023-03-15T05:35:48;31;29;
73631;PMS5003;61924;53.268;-2.458;2023-03-15T05:38:13;28;26;
73631;PMS5003;61924;53.268;-2.458;2023-03-15T05:40:39;24;24;
73631;PMS5003;61924;53.268;-2.458;2023-03-15T05:43:05;27;24;
73631;PMS5003;61924;53.268;-2.458;2023-03-15T05:45:30;33;30;
73631;PMS5003;61924;53.268;-2.458;2023-03-15T05:47:55;34;33;
73631;PMS5003;61924;53.268;-2.458;2023-03-15T05:50:21;34;33;
73631;PMS5003;61924;53.268;-2.458;2023-03-15T05:52:48;28;27;
73631;PMS5003;61924;53.268;-2.458;2023-03-15T05:55:12;26;25;
73631;PMS5003;61924;53.268;-2.458;2023-03-15T05:57:37;32;30;
73631;PMS5003;61924;53.268;-2.458;2023-03-15T06:00:03;32;31;
73631;PMS5003;61924;53.268;-2.458;2023-03-15T06:02:28;30;28;
73631;PMS5003;61924;53.268;-2.458;2023-03-15T06:04:53;35;33;
73631;PMS5003;61924;53.268;-2.458;2023-03-15T06:07:18;29;28;
73631;PMS5003;61924;53.268;-2.458;2023-03-15T06:09:44;28;26;
73631;PMS5003;61924;53.268;-2.458;2023-03-15T06:12:10;28;27;
73631;PMS5003;61924;53.268;-2.458;2023-03-15T06:14:35;25;23;
73631;PMS5003;61924;53.268;-2.458;2023-03-15T06:17:01;24;24;
73631;PMS5003;61924;53.268;-2.458;2023-03-15T06:19:27;23;23;
73631;PMS5003;61924;53.268;-2.458;2023-03-15T06:21:53;23;22;
73631;PMS5003;61924;53.268;-2.458;2023-03-15T06:24:18;20;20;
73631;PMS5003;61924;53.268;-2.458;2023-03-15T06:26:43;20;18;
73631;PMS5003;61924;53.268;-2.458;2023-03-15T06:29:09;24;23;
73631;PMS5003;61924;53.268;-2.458;2023-03-15T06:31:34;20;20;
73631;PMS5003;61924;53.268;-2.458;2023-03-15T06:33:59;18;17;
73631;PMS5003;61924;53.268;-2.458;2023-03-15T06:36:25;22;20;
73631;PMS5003;61924;53.268;-2.458;2023-03-15T06:38:50;22;21;
73631;PMS5003;61924;53.268;-2.458;2023-03-15T06:41:16;20;18;
73631;PMS5003;61924;53.268;-2.458;2023-03-15T06:43:42;19;18;
73631;PMS5003;61924;53.268;-2.458;2023-03-15T06:46:07;20;18;
73631;PMS5003;61924;53.268;-2.458;2023-03-15T06:48:32;16;16;
73631;PMS5003;61924;53.268;-2.458;2023-03-15T06:50:58;17;17;
73631;PMS5003;61924;53.268;-2.458;2023-03-15T06:53:23;17;17;
73631;PMS5003;61924;53.268;-2.458;2023-03-15T06:55:49;18;18;
73631;PMS5003;61924;53.268;-2.458;2023-03-15T06:58:14;18;18;
73631;PMS5003;61924;53.268;-2.458;2023-03-15T07:00:40;16;15;
73631;PMS5003;61924;53.268;-2.458;2023-03-15T07:03:05;16;16;
73631;PMS5003;61924;53.268;-2.458;2023-03-15T07:05:30;17;17;
73631;PMS5003;61924;53.268;-2.458;2023-03-15T07:07:56;14;13;
73631;PMS5003;61924;53.268;-2.458;2023-03-15T07:10:21;17;17;
73631;PMS5003;61924;53.268;-2.458;2023-03-15T07:12:46;14;13;
73631;PMS5003;61924;53.268;-2.458;2023-03-15T07:15:11;13;12;
73631;PMS5003;61924;53.268;-2.458;2023-03-15T07:17:37;10;10;
73631;PMS5003;61924;53.268;-2.458;2023-03-15T07:20:02;14;13;
73631;PMS5003;61924;53.268;-2.458;2023-03-15T07:22:27;12;11;
73631;PMS5003;61924;53.268;-2.458;2023-03-15T07:24:53;16;15;
73631;PMS5003;61924;53.268;-2.458;2023-03-15T07:27:19;14;14;
73631;PMS5003;61924;53.268;-2.458;2023-03-15T07:29:44;11;11;
73631;PMS5003;61924;53.268;-2.458;2023-03-15T07:32:10;12;12;
73631;PMS5003;61924;53.268;-2.458;2023-03-15T07:34:35;13;13;
73631;PMS5003;61924;53.268;-2.458;2023-03-15T07:37:00;15;14;
73631;PMS5003;61924;53.268;-2.458;2023-03-15T07:39:26;16;15;
73631;PMS5003;61924;53.268;-2.458;2023-03-15T07:41:52;11;10;
73631;PMS5003;61924;53.268;-2.458;2023-03-15T07:44:17;11;10;
73631;PMS5003;61924;53.268;-2.458;2023-03-15T07:46:43;13;12;
73631;PMS5003;61924;53.268;-2.458;2023-03-15T07:49:08;15;15;
73631;PMS5003;61924;53.268;-2.458;2023-03-15T07:51:34;12;11;
73631;PMS5003;61924;53.268;-2.458;2023-03-15T07:53:59;12;12;
73631;PMS5003;61924;53.268;-2.458;2023-03-15T07:56:25;9;9;
73631;PMS5003;61924;53.268;-2.458;2023-03-15T07:58:50;10;9;
73631;PMS5003;61924;53.268;-2.458;2023-03-15T08:01:15;12;11;
73631;PMS5003;61924;53.268;-2.458;2023-03-15T08:03:41;11;10;
73631;PMS5003;61924;53.268;-2.458;2023-03-15T08:06:06;9;8;
73631;PMS5003;61924;53.268;-2.458;2023-03-15T08:08:32;12;11;
73631;PMS5003;61924;53.268;-2.458;2023-03-15T08:10:57;10;10;
73631;PMS5003;61924;53.268;-2.458;2023-03-15T08:13:23;11;11;
73631;PMS5003;61924;53.268;-2.458;2023-03-15T08:15:48;9;9;
73631;PMS5003;61924;53.268;-2.458;2023-03-15T08:18:14;11;10;
73631;PMS5003;61924;53.268;-2.458;2023-03-15T08:20:39;9;9;
73631;PMS5003;61924;53.268;-2.458;2023-03-15T08:23:05;14;13;
73631;PMS5003;61924;53.268;-2.458;2023-03-15T08:25:30;9;9;
73631;PMS5003;61924;53.268;-2.458;2023-03-15T08:27:56;8;8;
73631;PMS5003;61924;53.268;-2.458;2023-03-15T08:30:21;8;8;
73631;PMS5003;61924;53.268;-2.458;2023-03-15T08:32:47;10;10;
73631;PMS5003;61924;53.268;-2.458;2023-03-15T08:35:13;6;6;
73631;PMS5003;61924;53.268;-2.458;2023-03-15T08:37:37;9;8;
73631;PMS5003;61924;53.268;-2.458;2023-03-15T08:40:03;8;8;
73631;PMS5003;61924;53.268;-2.458;2023-03-15T08:42:28;8;8;
73631;PMS5003;61924;53.268;-2.458;2023-03-15T08:44:53;11;8;
73631;PMS5003;61924;53.268;-2.458;2023-03-15T08:47:18;6;6;
73631;PMS5003;61924;53.268;-2.458;2023-03-15T08:49:44;6;6;
73631;PMS5003;61924;53.268;-2.458;2023-03-15T08:52:10;9;8;
73631;PMS5003;61924;53.268;-2.458;2023-03-15T08:54:35;7;7;
73631;PMS5003;61924;53.268;-2.458;2023-03-15T08:57:00;7;7;
73631;PMS5003;61924;53.268;-2.458;2023-03-15T08:59:26;7;7;
73631;PMS5003;61924;53.268;-2.458;2023-03-15T09:01:51;10;9;
73631;PMS5003;61924;53.268;-2.458;2023-03-15T09:04:17;10;8;
73631;PMS5003;61924;53.268;-2.458;2023-03-15T09:06:42;9;8;
73631;PMS5003;61924;53.268;-2.458;2023-03-15T09:09:07;5;5;
73631;PMS5003;61924;53.268;-2.458;2023-03-15T09:11:32;8;6;
73631;PMS5003;61924;53.268;-2.458;2023-03-15T09:13:58;9;8;
73631;PMS5003;61924;53.268;-2.458;2023-03-15T09:16:23;7;6;
73631;PMS5003;61924;53.268;-2.458;2023-03-15T09:18:49;8;8;
73631;PMS5003;61924;53.268;-2.458;2023-03-15T09:21:14;7;7;
73631;PMS5003;61924;53.268;-2.458;2023-03-15T09:23:40;8;7;
73631;PMS5003;61924;53.268;-2.458;2023-03-15T09:26:06;6;6;
73631;PMS5003;61924;53.268;-2.458;2023-03-15T09:28:31;8;8;
73631;PMS5003;61924;53.268;-2.458;2023-03-15T09:30:57;6;5;
73631;PMS5003;61924;53.268;-2.458;2023-03-15T09:33:22;6;6;
73631;PMS5003;61924;53.268;-2.458;2023-03-15T09:35:49;9;7;
73631;PMS5003;61924;53.268;-2.458;2023-03-15T09:38:14;9;9;
73631;PMS5003;61924;53.268;-2.458;2023-03-15T09:40:40;6;6;
73631;PMS5003;61924;53.268;-2.458;2023-03-15T09:43:11;7;6;
73631;PMS5003;61924;53.268;-2.458;2023-03-15T09:45:34;7;7;
73631;PMS5003;61924;53.268;-2.458;2023-03-15T09:47:58;8;7;
73631;PMS5003;61924;53.268;-2.458;2023-03-15T09:50:21;6;6;
73631;PMS5003;61924;53.268;-2.458;2023-03-15T09:52:47;6;6;
73631;PMS5003;61924;53.268;-2.458;2023-03-15T09:55:13;5;5;
73631;PMS5003;61924;53.268;-2.458;2023-03-15T09:57:39;7;6;
73631;PMS5003;61924;53.268;-2.458;2023-03-15T10:00:04;7;6;
73631;PMS5003;61924;53.268;-2.458;2023-03-15T10:02:29;6;6;
73631;PMS5003;61924;53.268;-2.458;2023-03-15T10:04:55;7;7;
73631;PMS5003;61924;53.268;-2.458;2023-03-15T10:07:19;5;5;
73631;PMS5003;61924;53.268;-2.458;2023-03-15T10:09:44;6;5;
73631;PMS5003;61924;53.268;-2.458;2023-03-15T10:12:10;5;4;
73631;PMS5003;61924;53.268;-2.458;2023-03-15T10:14:41;5;5;
73631;PMS5003;61924;53.268;-2.458;2023-03-15T10:17:01;6;6;
73631;PMS5003;61924;53.268;-2.458;2023-03-15T10:19:28;5;5;
73631;PMS5003;61924;53.268;-2.458;2023-03-15T10:21:53;4;4;
73631;PMS5003;61924;53.268;-2.458;2023-03-15T10:24:17;6;6;
73631;PMS5003;61924;53.268;-2.458;2023-03-15T10:26:42;4;4;
73631;PMS5003;61924;53.268;-2.458;2023-03-15T10:29:09;6;6;
73631;PMS5003;61924;53.268;-2.458;2023-03-15T10:31:33;5;4;
73631;PMS5003;61924;53.268;-2.458;2023-03-15T10:33:58;7;6;
73631;PMS5003;61924;53.268;-2.458;2023-03-15T10:36:24;8;5;
73631;PMS5003;61924;53.268;-2.458;2023-03-15T10:38:49;7;6;
73631;PMS5003;61924;53.268;-2.458;2023-03-15T10:41:26;6;6;
73631;PMS5003;61924;53.268;-2.458;2023-03-15T10:43:40;4;4;
73631;PMS5003;61924;53.268;-2.458;2023-03-15T10:46:06;6;6;
73631;PMS5003;61924;53.268;-2.458;2023-03-15T10:48:31;6;5;
73631;PMS5003;61924;53.268;-2.458;2023-03-15T10:50:56;4;4;
73631;PMS5003;61924;53.268;-2.458;2023-03-15T10:53:21;4;4;
73631;PMS5003;61924;53.268;-2.458;2023-03-15T10:55:46;5;5;
73631;PMS5003;61924;53.268;-2.458;2023-03-15T10:58:17;6;5;
73631;PMS5003;61924;53.268;-2.458;2023-03-15T11:00:38;5;4;
73631;PMS5003;61924;53.268;-2.458;2023-03-15T11:03:04;5;5;
73631;PMS5003;61924;53.268;-2.458;2023-03-15T11:05:29;6;5;
73631;PMS5003;61924;53.268;-2.458;2023-03-15T11:07:55;3;3;
73631;PMS5003;61924;53.268;-2.458;2023-03-15T11:10:20;5;5;
73631;PMS5003;61924;53.268;-2.458;2023-03-15T11:12:45;5;5;
73631;PMS5003;61924;53.268;-2.458;2023-03-15T11:15:12;7;7;
73631;PMS5003;61924;53.268;-2.458;2023-03-15T11:17:40;5;5;
73631;PMS5003;61924;53.268;-2.458;2023-03-15T11:20:03;5;5;
73631;PMS5003;61924;53.268;-2.458;2023-03-15T11:22:28;5;5;
73631;PMS5003;61924;53.268;-2.458;2023-03-15T11:24:53;6;6;
73631;PMS5003;61924;53.268;-2.458;2023-03-15T11:27:18;6;6;
73631;PMS5003;61924;53.268;-2.458;2023-03-15T11:29:45;4;4;
73631;PMS5003;61924;53.268;-2.458;2023-03-15T11:32:10;5;4;
73631;PMS5003;61924;53.268;-2.458;2023-03-15T11:34:35;5;5;
73631;PMS5003;61924;53.268;-2.458;2023-03-15T11:36:59;4;3;
73631;PMS5003;61924;53.268;-2.458;2023-03-15T11:39:27;6;5;
73631;PMS5003;61924;53.268;-2.458;2023-03-15T11:41:50;5;4;
73631;PMS5003;61924;53.268;-2.458;2023-03-15T11:44:15;4;4;
73631;PMS5003;61924;53.268;-2.458;2023-03-15T11:46:41;4;4;
73631;PMS5003;61924;53.268;-2.458;2023-03-15T11:49:09;4;4;
73631;PMS5003;61924;53.268;-2.458;2023-03-15T11:51:32;5;5;
73631;PMS5003;61924;53.268;-2.458;2023-03-15T11:54:00;4;4;
73631;PMS5003;61924;53.268;-2.458;2023-03-15T11:56:23;3;3;
73631;PMS5003;61924;53.268;-2.458;2023-03-15T11:59:05;3;3;
73631;PMS5003;61924;53.268;-2.458;2023-03-15T12:01:13;4;4;
73631;PMS5003;61924;53.268;-2.458;2023-03-15T12:03:40;5;5;
73631;PMS5003;61924;53.268;-2.458;2023-03-15T12:06:08;4;4;
73631;PMS5003;61924;53.268;-2.458;2023-03-15T12:08:46;4;3;
73631;PMS5003;61924;53.268;-2.458;2023-03-15T12:10:55;4;4;
73631;PMS5003;61924;53.268;-2.458;2023-03-15T12:13:22;4;4;
73631;PMS5003;61924;53.268;-2.458;2023-03-15T12:15:46;4;4;
73631;PMS5003;61924;53.268;-2.458;2023-03-15T12:18:20;3;3;
73631;PMS5003;61924;53.268;-2.458;2023-03-15T12:20:37;4;4;
73631;PMS5003;61924;53.268;-2.458;2023-03-15T12:23:07;5;4;
73631;PMS5003;61924;53.268;-2.458;2023-03-15T12:25:28;4;3;
73631;PMS5003;61924;53.268;-2.458;2023-03-15T12:27:53;3;3;
73631;PMS5003;61924;53.268;-2.458;2023-03-15T12:30:19;5;4;
73631;PMS5003;61924;53.268;-2.458;2023-03-15T12:32:45;2;2;
73631;PMS5003;61924;53.268;-2.458;2023-03-15T12:35:10;4;4;
73631;PMS5003;61924;53.268;-2.458;2023-03-15T12:37:37;3;3;
73631;PMS5003;61924;53.268;-2.458;2023-03-15T12:40:00;3;3;
73631;PMS5003;61924;53.268;-2.458;2023-03-15T12:42:58;5;5;
73631;PMS5003;61924;53.268;-2.458;2023-03-15T12:44:50;3;3;
73631;PMS5003;61924;53.268;-2.458;2023-03-15T12:47:15;5;5;
73631;PMS5003;61924;53.268;-2.458;2023-03-15T12:49:41;4;4;
73631;PMS5003;61924;53.268;-2.458;2023-03-15T12:52:40;4;3;
73631;PMS5003;61924;53.268;-2.458;2023-03-15T12:54:36;4;4;
73631;PMS5003;61924;53.268;-2.458;2023-03-15T12:56:58;4;4;
73631;PMS5003;61924;53.268;-2.458;2023-03-15T12:59:57;4;4;
73631;PMS5003;61924;53.268;-2.458;2023-03-15T13:01:49;3;3;
73631;PMS5003;61924;53.268;-2.458;2023-03-15T13:04:14;3;3;
73631;PMS5003;61924;53.268;-2.458;2023-03-15T13:06:44;2;2;
73631;PMS5003;61924;53.268;-2.458;2023-03-15T13:09:08;3;3;
73631;PMS5003;61924;53.268;-2.458;2023-03-15T13:11:30;5;5;
73631;PMS5003;61924;53.268;-2.458;2023-03-15T13:13:59;3;3;
73631;PMS5003;61924;53.268;-2.458;2023-03-15T13:16:23;4;4;
73631;PMS5003;61924;53.268;-2.458;2023-03-15T13:18:49;4;3;
73631;PMS5003;61924;53.268;-2.458;2023-03-15T13:21:12;3;3;
73631;PMS5003;61924;53.268;-2.458;2023-03-15T13:23:37;2;2;
73631;PMS5003;61924;53.268;-2.458;2023-03-15T13:26:09;4;4;
73631;PMS5003;61924;53.268;-2.458;2023-03-15T13:28:29;3;3;
73631;PMS5003;61924;53.268;-2.458;2023-03-15T13:30:54;4;4;
73631;PMS5003;61924;53.268;-2.458;2023-03-15T13:33:20;2;2;
73631;PMS5003;61924;53.268;-2.458;2023-03-15T13:35:45;4;3;
73631;PMS5003;61924;53.268;-2.458;2023-03-15T13:38:21;2;2;
73631;PMS5003;61924;53.268;-2.458;2023-03-15T13:40:44;3;3;
73631;PMS5003;61924;53.268;-2.458;2023-03-15T13:43:00;3;3;
73631;PMS5003;61924;53.268;-2.458;2023-03-15T13:45:26;3;2;
73631;PMS5003;61924;53.268;-2.458;2023-03-15T13:47:51;3;3;
73631;PMS5003;61924;53.268;-2.458;2023-03-15T13:50:17;3;2;
73631;PMS5003;61924;53.268;-2.458;2023-03-15T13:52:42;4;4;
73631;PMS5003;61924;53.268;-2.458;2023-03-15T13:55:08;4;3;
73631;PMS5003;61924;53.268;-2.458;2023-03-15T13:57:33;2;2;
73631;PMS5003;61924;53.268;-2.458;2023-03-15T13:59:59;3;3;
73631;PMS5003;61924;53.268;-2.458;2023-03-15T14:02:27;3;3;
73631;PMS5003;61924;53.268;-2.458;2023-03-15T14:04:51;3;3;
73631;PMS5003;61924;53.268;-2.458;2023-03-15T14:07:20;1;1;
73631;PMS5003;61924;53.268;-2.458;2023-03-15T14:09:41;2;2;
73631;PMS5003;61924;53.268;-2.458;2023-03-15T14:12:15;3;3;
73631;PMS5003;61924;53.268;-2.458;2023-03-15T14:14:35;1;1;
73631;PMS5003;61924;53.268;-2.458;2023-03-15T14:16:58;4;4;
73631;PMS5003;61924;53.268;-2.458;2023-03-15T14:19:23;2;2;
73631;PMS5003;61924;53.268;-2.458;2023-03-15T14:21:50;3;3;
73631;PMS5003;61924;53.268;-2.458;2023-03-15T14:24:15;2;2;
73631;PMS5003;61924;53.268;-2.458;2023-03-15T14:26:39;2;2;
73631;PMS5003;61924;53.268;-2.458;2023-03-15T14:29:06;2;2;
73631;PMS5003;61924;53.268;-2.458;2023-03-15T14:31:31;3;3;
73631;PMS5003;61924;53.268;-2.458;2023-03-15T14:33:57;2;2;
73631;PMS5003;61924;53.268;-2.458;2023-03-15T14:36:22;3;3;
73631;PMS5003;61924;53.268;-2.458;2023-03-15T14:38:49;2;2;
73631;PMS5003;61924;53.268;-2.458;2023-03-15T14:41:17;5;4;
73631;PMS5003;61924;53.268;-2.458;2023-03-15T14:43:37;3;3;
73631;PMS5003;61924;53.268;-2.458;2023-03-15T14:46:04;3;3;
73631;PMS5003;61924;53.268;-2.458;2023-03-15T14:48:28;3;3;
73631;PMS5003;61924;53.268;-2.458;2023-03-15T14:50:53;2;2;
73631;PMS5003;61924;53.268;-2.458;2023-03-15T14:53:19;3;3;
73631;PMS5003;61924;53.268;-2.458;2023-03-15T14:55:44;4;3;
73631;PMS5003;61924;53.268;-2.458;2023-03-15T14:58:10;3;2;
73631;PMS5003;61924;53.268;-2.458;2023-03-15T15:00:35;4;4;
73631;PMS5003;61924;53.268;-2.458;2023-03-15T15:03:00;3;3;
73631;PMS5003;61924;53.268;-2.458;2023-03-15T15:05:26;2;2;
73631;PMS5003;61924;53.268;-2.458;2023-03-15T15:07:52;3;2;
73631;PMS5003;61924;53.268;-2.458;2023-03-15T15:10:17;3;3;
73631;PMS5003;61924;53.268;-2.458;2023-03-15T15:12:42;2;2;
73631;PMS5003;61924;53.268;-2.458;2023-03-15T15:15:12;1;1;
73631;PMS5003;61924;53.268;-2.458;2023-03-15T15:17:33;3;3;
73631;PMS5003;61924;53.268;-2.458;2023-03-15T15:19:58;2;2;
73631;PMS5003;61924;53.268;-2.458;2023-03-15T15:22:24;2;2;
73631;PMS5003;61924;53.268;-2.458;2023-03-15T15:24:49;3;3;
73631;PMS5003;61924;53.268;-2.458;2023-03-15T15:27:14;4;4;
73631;PMS5003;61924;53.268;-2.458;2023-03-15T15:29:40;1;1;
73631;PMS5003;61924;53.268;-2.458;2023-03-15T15:32:06;4;3;
73631;PMS5003;61924;53.268;-2.458;2023-03-15T15:34:31;1;1;
73631;PMS5003;61924;53.268;-2.458;2023-03-15T15:36:56;4;4;
73631;PMS5003;61924;53.268;-2.458;2023-03-15T15:39:22;3;3;
73631;PMS5003;61924;53.268;-2.458;2023-03-15T15:41:46;3;3;
73631;PMS5003;61924;53.268;-2.458;2023-03-15T15:44:13;3;3;
73631;PMS5003;61924;53.268;-2.458;2023-03-15T15:46:37;4;3;
73631;PMS5003;61924;53.268;-2.458;2023-03-15T15:49:03;3;3;
73631;PMS5003;61924;53.268;-2.458;2023-03-15T15:51:29;3;3;
73631;PMS5003;61924;53.268;-2.458;2023-03-15T15:53:54;3;3;
73631;PMS5003;61924;53.268;-2.458;2023-03-15T15:56:19;5;3;
73631;PMS5003;61924;53.268;-2.458;2023-03-15T15:58:44;2;2;
73631;PMS5003;61924;53.268;-2.458;2023-03-15T16:01:10;3;3;
73631;PMS5003;61924;53.268;-2.458;2023-03-15T16:03:35;3;3;
73631;PMS5003;61924;53.268;-2.458;2023-03-15T16:06:00;2;2;
73631;PMS5003;61924;53.268;-2.458;2023-03-15T16:08:26;2;2;
73631;PMS5003;61924;53.268;-2.458;2023-03-15T16:10:52;2;2;
73631;PMS5003;61924;53.268;-2.458;2023-03-15T16:13:17;3;3;
73631;PMS5003;61924;53.268;-2.458;2023-03-15T16:15:43;3;3;
73631;PMS5003;61924;53.268;-2.458;2023-03-15T16:18:08;2;2;
73631;PMS5003;61924;53.268;-2.458;2023-03-15T16:20:34;1;1;
73631;PMS5003;61924;53.268;-2.458;2023-03-15T16:22:59;3;3;
73631;PMS5003;61924;53.268;-2.458;2023-03-15T16:25:25;2;2;